Flight Track Log - Related Links

Times and Time Zones

All times are in EDT time to prevent confusion due to time zone crossing. See the WBR2627 flight status page for this flight to view local times or setup timezone preferences in your user account.

Time Position Orientation Groundspeed Altitude Reporting Facility
EDT Latitude Longitude Course Direction KTS MPH feet Rate Location/Type
Sun 03:02:54 PM 41.9333 -87.9333 270° West 100 115 2,100  Level Chicago TRACON
Sun 03:03:54 PM 41.9167 -87.9500 217° Southwest 98 113 3,000 900 Climbing Chicago TRACON
Sun 03:04:54 PM 41.8833 -87.9833 217° Southwest 119 137 3,900 850 Climbing Chicago TRACON
Sun 03:05:54 PM 41.8667 -88.0167 236° Southwest 121 139 4,700 818 Climbing Chicago TRACON
Sun 03:06:22 PM 41.8533 -88.0306 218° Southwest 115 132 5,100 733 Climbing Chicago Center
Sun 03:07:24 PM 41.8300 -88.0647 228° Southwest 120 138 5,800 435 Climbing Chicago Center
Sun 03:08:00 PM 41.9667 -88.2436 270° West  Level FlightAware Approximate
Sun 03:08:26 PM 41.8114 -88.1125 242° Southwest 132 152 6,000  Level Chicago Center
Sun 03:09:28 PM 41.7958 -88.1703 250° West 150 173 5,900 -48 Descending Chicago Center
Sun 03:10:30 PM 41.7806 -88.2419 254° West 162 186 5,900  Level Chicago Center
Sun 03:11:32 PM 41.7822 -88.3044 272° West 167 192 5,900 48 Level Chicago Center
Sun 03:12:34 PM 41.7833 -88.3703 271° West 167 192 6,000 339 Climbing Chicago Center
Sun 03:13:36 PM 41.7842 -88.4211 271° West 158 182 6,600 532 Climbing Chicago Center
Sun 03:14:38 PM 41.7858 -88.4750 272° West 148 170 7,100 581 Climbing Chicago Center
Sun 03:15:40 PM 41.7872 -88.5400 272° West 147 169 7,800 435 Climbing Chicago Center
Sun 03:16:42 PM 41.7867 -88.5964 269° West 152 175 8,000 145 Climbing Chicago Center
Sun 03:17:44 PM 41.7856 -88.6589 269° West 165 190 8,100  Climbing Chicago Center
Sun 03:18:46 PM 41.7872 -88.7167 272° West 159 183 8,000 -48 Descending Chicago Center
Sun 03:19:48 PM 41.7886 -88.7731 272° West 153 176 8,000  Level Chicago Center
Sun 03:20:51 PM 41.7686 -88.8336 246° West 153 176 8,000  Level Chicago Center
Sun 03:21:53 PM 41.7461 -88.8839 239° Southwest 156 180 8,000  Level Chicago Center
Sun 03:22:55 PM 41.7258 -88.9347 242° Southwest 156 180 8,000  Level Chicago Center
Sun 03:23:57 PM 41.7047 -88.9844 240° Southwest 156 180 8,000  Level Chicago Center
Sun 03:24:59 PM 41.6836 -89.0353 241° Southwest 156 180 8,000  Level Chicago Center
Sun 03:26:01 PM 41.6586 -89.0936 240° Southwest 154 177 8,000  Level Chicago Center
Sun 03:27:03 PM 41.6381 -89.1444 242° Southwest 155 178 8,000  Level Chicago Center
Sun 03:28:05 PM 41.6203 -89.1981 246° West 159 183 8,000  Level Chicago Center
Sun 03:29:07 PM 41.6078 -89.2531 253° West 158 182 8,000  Level Chicago Center
Sun 03:30:09 PM 41.5936 -89.3069 251° West 157 181 8,000  Level Chicago Center
Sun 03:31:11 PM 41.5781 -89.3725 252° West 156 180 8,000  Level Chicago Center
Sun 03:32:13 PM 41.5650 -89.4264 252° West 155 178 8,000  Level Chicago Center
Sun 03:33:16 PM 41.5503 -89.4811 250° West 155 178 8,000 48 Level Chicago Center
Sun 03:34:18 PM 41.5356 -89.5342 250° West 155 178 8,100 48 Climbing Chicago Center
Sun 03:35:20 PM 41.5158 -89.5844 242° Southwest 152 175 8,100  Level Chicago Center
Sun 03:36:22 PM 41.4928 -89.6314 237° Southwest 152 175 8,100  Level Chicago Center
Sun 03:37:24 PM 41.4656 -89.6892 238° Southwest 153 176 8,100  Level Chicago Center
Sun 03:38:26 PM 41.4428 -89.7367 237° Southwest 153 176 8,100  Level Chicago Center
Sun 03:39:28 PM 41.4214 -89.7844 239° Southwest 151 174 8,100  Level Chicago Center
Sun 03:40:30 PM 41.3972 -89.8322 236° Southwest 154 177 8,100  Level Chicago Center
Sun 03:41:32 PM 41.3753 -89.8800 239° Southwest 153 176 8,100  Level Chicago Center
Sun 03:42:34 PM 41.3531 -89.9269 238° Southwest 151 174 8,100  Level Chicago Center
Sun 03:43:36 PM 41.3275 -89.9831 239° Southwest 148 170 8,100 -48 Level Chicago Center
Sun 03:44:38 PM 41.3050 -90.0292 237° Southwest 149 171 8,000  Descending Chicago Center
Sun 03:45:40 PM 41.2836 -90.0761 239° Southwest 148 170 8,100 48 Climbing Chicago Center
Sun 03:46:42 PM 41.2600 -90.1236 237° Southwest 153 176 8,100  Level Chicago Center
Sun 03:47:44 PM 41.2375 -90.1706 237° Southwest 152 175 8,100  Level Chicago Center
Sun 03:48:46 PM 41.2150 -90.2183 238° Southwest 153 176 8,100  Level Chicago Center
Sun 03:49:48 PM 41.1869 -90.2775 238° Southwest 155 178 8,100  Level Chicago Center
Sun 03:50:50 PM 41.1644 -90.3256 238° Southwest 156 180 8,100  Level Chicago Center
Sun 03:51:52 PM 41.1431 -90.3733 239° Southwest 154 177 8,100  Level Chicago Center
Sun 03:52:54 PM 41.1214 -90.4219 239° Southwest 153 176 8,100  Level Chicago Center
Sun 03:53:56 PM 41.0981 -90.4703 237° Southwest 155 178 8,100  Level Chicago Center
Sun 03:54:58 PM 41.0789 -90.5203 243° Southwest 154 177 8,100  Level Chicago Center
Sun 03:56:00 PM 41.0528 -90.5769 239° Southwest 151 174 8,100 -48 Level Chicago Center
Sun 03:57:02 PM 41.0278 -90.6247 235° Southwest 156 180 8,000 -242 Descending Chicago Center
Sun 03:58:04 PM 41.0042 -90.6722 237° Southwest 155 178 7,600 -435 Descending Chicago Center
Sun 03:59:06 PM 40.9775 -90.7228 235° Southwest 161 185 7,100 -581 Descending Chicago Center
Sun 04:00:08 PM 40.9547 -90.7722 239° Southwest 161 185 6,400 -726 Descending Chicago Center
Sun 04:01:10 PM 40.9272 -90.8322 239° Southwest 160 184 5,600 -624 Descending Chicago Center
Sun 04:02:13 PM 40.9050 -90.8803 239° Southwest 157 181 5,100 -528 Descending Chicago Center
Sun 04:03:15 PM 40.8858 -90.9272 242° Southwest 152 175 4,500 -677 Descending Chicago Center
Sun 04:04:17 PM 40.8786 -90.9783 259° West 146 168 3,700 -677 Descending Chicago Center
Sun 04:05:19 PM 40.8686 -91.0283 255° West 143 165 3,100 -532 Descending Chicago Center
Sun 04:06:21 PM 40.8547 -91.0806 251° West 145 167 2,600 -484 Descending Chicago Center
Sun 04:08:00 PM 40.7890 -91.1219 217° Southwest  Level Estimated

Login

Don't have an account? Register now (free) for customized features, flight alerts, and more!